createdAt,value
2018-09-05T00:00:30.706Z,63.82
2018-09-05T00:01:30.730Z,63.85
2018-09-05T00:02:30.692Z,63.95
2018-09-05T00:03:30.715Z,63.85
2018-09-05T00:04:30.675Z,64.02
2018-09-05T00:05:30.665Z,63.82
2018-09-05T00:06:30.650Z,63.85
2018-09-05T00:07:30.644Z,63.92
2018-09-05T00:08:30.671Z,63.92
2018-09-05T00:09:30.627Z,64.12
2018-09-05T00:10:30.621Z,64.02
2018-09-05T00:11:30.618Z,63.73
2018-09-05T00:12:30.596Z,64.02
2018-09-05T00:13:30.638Z,64.12
2018-09-05T00:14:30.579Z,64.02
2018-09-05T00:15:30.582Z,64.50
2018-09-05T00:16:30.582Z,64.21
2018-09-05T00:17:30.567Z,64.50
2018-09-05T00:18:30.556Z,64.21
2018-09-05T00:19:30.557Z,64.12
2018-09-05T00:20:30.541Z,64.31
2018-09-05T00:21:30.525Z,64.12
2018-09-05T00:22:30.524Z,64.02
2018-09-05T00:23:30.512Z,64.59
2018-09-05T00:24:30.517Z,64.59
2018-09-05T00:25:30.498Z,64.21
2018-09-05T00:26:30.540Z,64.31
2018-09-05T00:27:30.481Z,64.02
2018-09-05T00:28:30.481Z,64.40
2018-09-05T00:29:30.468Z,64.50
2018-09-05T00:30:30.456Z,64.50
2018-09-05T00:31:30.449Z,64.21
2018-09-05T00:32:30.442Z,63.89
2018-09-05T00:33:30.428Z,64.37
2018-09-05T00:34:30.427Z,64.37
2018-09-05T00:35:30.419Z,64.56
2018-09-05T00:36:30.460Z,64.47
2018-09-05T00:37:30.393Z,64.86
2018-09-05T00:38:30.383Z,64.86
2018-09-05T00:39:30.371Z,64.18
2018-09-05T00:40:30.371Z,64.66
2018-09-05T00:41:30.362Z,64.18
2018-09-05T00:42:30.354Z,64.31
2018-09-05T00:43:30.338Z,64.56
2018-09-05T00:44:30.329Z,64.86
2018-09-05T00:45:30.330Z,64.47
2018-09-05T00:46:30.317Z,64.66
2018-09-05T00:47:30.383Z,64.47
2018-09-05T00:48:30.307Z,64.47
2018-09-05T00:49:30.291Z,64.47
2018-09-05T00:50:30.283Z,64.37
2018-09-05T00:51:30.288Z,64.08
2018-09-05T00:52:30.269Z,63.99
2018-09-05T00:53:30.327Z,64.37
2018-09-05T00:54:30.262Z,63.99
2018-09-05T00:55:30.254Z,64.18
2018-09-05T00:56:30.230Z,64.28
2018-09-05T00:57:30.220Z,64.18
2018-09-05T00:58:30.217Z,64.47
2018-09-05T00:59:30.244Z,64.86
2018-09-05T01:00:30.194Z,64.18
2018-09-05T01:01:30.194Z,64.66
2018-09-05T01:02:30.181Z,64.95
2018-09-05T01:03:30.208Z,65.05
2018-09-05T01:04:30.217Z,64.95
2018-09-05T01:05:30.156Z,64.95
2018-09-05T01:06:30.151Z,64.66
2018-09-05T01:07:30.131Z,64.28
2018-09-05T01:08:30.127Z,64.95
2018-09-05T01:09:30.122Z,64.37
2018-09-05T01:10:30.138Z,64.56
2018-09-05T01:11:30.140Z,64.37
2018-09-05T01:12:30.088Z,64.86
2018-09-05T01:13:30.082Z,64.86
2018-09-05T01:14:30.078Z,64.86
2018-09-05T01:15:30.103Z,64.86
2018-09-05T01:16:30.068Z,65.05
2018-09-05T01:17:30.061Z,64.76
2018-09-05T01:18:30.047Z,64.18
2018-09-05T01:19:30.038Z,64.08
2018-09-05T01:20:30.093Z,64.28
2018-09-05T01:21:30.030Z,64.18
2018-09-05T01:22:29.999Z,64.28
2018-09-05T01:23:30.008Z,64.08
2018-09-05T01:24:30.052Z,64.73
2018-09-05T01:25:29.982Z,64.95
2018-09-05T01:26:29.977Z,64.66
2018-09-05T01:27:29.970Z,64.53
2018-09-05T01:28:29.955Z,64.82
2018-09-05T01:29:29.945Z,65.11
2018-09-05T01:30:29.947Z,64.73
2018-09-05T01:31:29.993Z,65.11
2018-09-05T01:32:29.939Z,64.92
2018-09-05T01:33:29.925Z,64.63
2018-09-05T01:34:29.909Z,64.53
2018-09-05T01:35:29.901Z,64.92
2018-09-05T01:36:29.890Z,64.73
2018-09-05T01:37:29.948Z,65.40
2018-09-05T01:38:29.867Z,65.56
2018-09-05T01:39:29.858Z,64.98
2018-09-05T01:40:29.850Z,65.27
2018-09-05T01:41:29.855Z,65.46
2018-09-05T01:42:29.833Z,65.56
2018-09-05T01:43:29.875Z,65.46
2018-09-05T01:44:29.833Z,65.08
2018-09-05T01:45:29.812Z,65.75
2018-09-05T01:46:29.806Z,65.46
2018-09-05T01:47:29.793Z,65.46
2018-09-05T01:48:29.787Z,65.56
2018-09-05T01:49:29.822Z,65.46
2018-09-05T01:50:29.755Z,65.84
2018-09-05T01:51:29.756Z,65.84
2018-09-05T01:52:29.756Z,65.84
2018-09-05T01:53:29.744Z,66.42
2018-09-05T01:54:29.734Z,66.42
2018-09-05T01:55:29.774Z,65.84
2018-09-05T01:56:29.710Z,66.30
2018-09-05T01:57:29.694Z,65.81
2018-09-05T01:58:29.684Z,65.91
2018-09-05T01:59:29.688Z,66.00
2018-09-05T02:00:29.665Z,66.49
2018-09-05T02:01:29.684Z,66.58
2018-09-05T02:02:29.663Z,66.87
2018-09-05T02:03:29.657Z,66.58
2018-09-05T02:04:29.649Z,66.58
2018-09-05T02:05:29.657Z,66.49
2018-09-05T02:06:29.618Z,66.68
2018-09-05T02:07:29.603Z,66.68
2018-09-05T02:08:29.607Z,66.58
2018-09-05T02:09:29.584Z,66.58
2018-09-05T02:10:29.947Z,66.39
2018-09-05T02:11:29.561Z,66.68
2018-09-05T02:12:29.561Z,66.68
2018-09-05T02:13:29.559Z,66.87
2018-09-05T02:14:29.556Z,66.87
2018-09-05T02:15:29.533Z,66.87
2018-09-05T02:16:29.529Z,66.77
2018-09-05T02:17:29.515Z,66.68
2018-09-05T02:18:29.506Z,67.07
2018-09-05T02:19:29.488Z,67.07
2018-09-05T02:20:29.479Z,66.64
2018-09-05T02:21:29.502Z,67.25
2018-09-05T02:22:29.504Z,66.68
2018-09-05T02:23:29.458Z,66.58
2018-09-05T02:24:29.449Z,66.58
2018-09-05T02:25:29.443Z,66.97
2018-09-05T02:26:29.439Z,66.87
2018-09-05T02:27:29.419Z,66.87
2018-09-05T02:28:29.419Z,66.58
2018-09-05T02:29:29.389Z,66.58
2018-09-05T02:30:29.392Z,66.77
2018-09-05T02:31:29.381Z,66.68
2018-09-05T02:32:29.378Z,66.68
2018-09-05T02:33:29.358Z,66.68
2018-09-05T02:34:29.353Z,66.58
2018-09-05T02:35:29.348Z,66.84
2018-09-05T02:36:29.338Z,66.97
2018-09-05T02:37:29.321Z,66.55
2018-09-05T02:38:29.340Z,66.74
2018-09-05T02:39:29.307Z,66.84
2018-09-05T02:40:29.339Z,66.46
2018-09-05T02:41:29.294Z,66.26
2018-09-05T02:42:29.278Z,66.64
2018-09-05T02:43:29.272Z,66.55
2018-09-05T02:44:29.252Z,66.84
2018-09-05T02:45:29.255Z,66.36
2018-09-05T02:46:29.244Z,66.84
2018-09-05T02:47:29.233Z,66.64
2018-09-05T02:48:29.243Z,65.97
2018-09-05T02:49:29.208Z,66.84
2018-09-05T02:50:29.233Z,66.64
2018-09-05T02:51:29.193Z,65.97
2018-09-05T02:52:29.182Z,66.84
2018-09-05T02:53:29.180Z,66.74
2018-09-05T02:54:29.167Z,66.55
2018-09-05T02:55:29.188Z,66.55
2018-09-05T02:56:29.141Z,66.55
2018-09-05T02:57:29.134Z,66.46
2018-09-05T02:58:29.121Z,66.64
2018-09-05T02:59:29.110Z,66.84
2018-09-05T03:00:29.127Z,65.97
2018-09-05T03:01:29.100Z,66.36
2018-09-05T03:02:29.461Z,66.61
2018-09-05T03:03:29.074Z,66.80
2018-09-05T03:04:29.068Z,66.52
2018-09-05T03:05:29.058Z,66.26
2018-09-05T03:06:29.050Z,66.90
2018-09-05T03:07:29.026Z,66.61
2018-09-05T03:08:29.022Z,66.71
2018-09-05T03:09:29.121Z,66.61
2018-09-05T03:10:29.046Z,66.42
2018-09-05T03:11:28.996Z,66.80
2018-09-05T03:12:28.984Z,66.90
2018-09-05T03:13:28.977Z,66.90
2018-09-05T03:14:28.963Z,67.00
2018-09-05T03:15:28.949Z,66.90
2018-09-05T03:16:28.946Z,66.80
2018-09-05T03:17:28.967Z,67.09
2018-09-05T03:18:28.930Z,66.61
2018-09-05T03:19:28.954Z,66.90
2018-09-05T03:20:28.905Z,66.52
2018-09-05T03:21:28.900Z,66.90
2018-09-05T03:22:28.904Z,66.42
2018-09-05T03:23:28.919Z,66.52
2018-09-05T03:24:28.900Z,66.71
2018-09-05T03:25:28.862Z,66.52
2018-09-05T03:26:28.855Z,66.71
2018-09-05T03:27:28.837Z,66.71
2018-09-05T03:28:28.829Z,66.80
2018-09-05T03:29:28.868Z,67.06
2018-09-05T03:30:28.802Z,67.00
2018-09-05T03:31:28.803Z,66.71
2018-09-05T03:32:28.820Z,67.00
2018-09-05T03:33:28.770Z,67.06
2018-09-05T03:34:28.776Z,66.96
2018-09-05T03:35:28.788Z,66.86
2018-09-05T03:36:28.748Z,66.67
2018-09-05T03:37:28.744Z,66.86
2018-09-05T03:38:28.726Z,66.77
2018-09-05T03:39:28.741Z,66.86
2018-09-05T03:40:28.702Z,66.67
2018-09-05T03:41:28.695Z,66.86
2018-09-05T03:42:28.763Z,66.77
2018-09-05T03:43:28.674Z,66.67
2018-09-05T03:44:28.658Z,67.35
2018-09-05T03:45:28.657Z,67.16
2018-09-05T03:46:28.645Z,67.63
2018-09-05T03:47:28.637Z,67.25
2018-09-05T03:48:28.642Z,67.54
2018-09-05T03:49:28.620Z,66.96
2018-09-05T03:50:28.625Z,67.25
2018-09-05T03:51:28.598Z,67.54
2018-09-05T03:52:28.583Z,67.25
2018-09-05T03:53:28.577Z,67.54
2018-09-05T03:54:28.569Z,67.16
2018-09-05T03:55:28.550Z,66.67
2018-09-05T03:56:28.539Z,67.16
2018-09-05T03:57:28.534Z,67.06
2018-09-05T03:58:28.530Z,67.06
2018-09-05T03:59:28.546Z,67.06
2018-09-05T04:00:28.532Z,67.44
2018-09-05T04:01:28.486Z,67.25
2018-09-05T04:02:28.484Z,67.44
2018-09-05T04:03:28.471Z,67.54
2018-09-05T04:04:28.460Z,67.35
2018-09-05T04:05:28.485Z,67.06
2018-09-05T04:06:28.431Z,67.44
2018-09-05T04:07:28.455Z,67.44
2018-09-05T04:08:28.418Z,67.25
2018-09-05T04:09:28.401Z,67.16
2018-09-05T04:10:28.398Z,67.83
2018-09-05T04:11:28.381Z,67.83
2018-09-05T04:12:28.404Z,67.63
2018-09-05T04:13:28.371Z,67.25
2018-09-05T04:14:28.358Z,67.25
2018-09-05T04:15:28.339Z,67.83
2018-09-05T04:16:28.339Z,67.92
2018-09-05T04:17:28.354Z,67.44
2018-09-05T04:18:28.314Z,68.18
2018-09-05T04:19:28.342Z,67.89
2018-09-05T04:20:28.291Z,67.60
2018-09-05T04:21:28.292Z,67.41
2018-09-05T04:22:28.302Z,67.69
2018-09-05T04:23:28.261Z,67.60
2018-09-05T04:24:28.253Z,67.73
2018-09-05T04:25:28.252Z,67.73
2018-09-05T04:26:28.229Z,67.60
2018-09-05T04:27:28.225Z,67.63
2018-09-05T04:28:28.215Z,67.79
2018-09-05T04:29:28.263Z,68.02
2018-09-05T04:30:28.199Z,68.02
2018-09-05T04:31:28.178Z,68.08
2018-09-05T04:32:28.206Z,67.83
2018-09-05T04:33:28.149Z,68.27
2018-09-05T04:34:28.154Z,67.79
2018-09-05T04:35:28.141Z,67.99
2018-09-05T04:36:28.134Z,67.79
2018-09-05T04:37:28.169Z,68.08
2018-09-05T04:38:28.096Z,67.89
2018-09-05T04:39:28.094Z,68.08
2018-09-05T04:40:28.081Z,67.89
2018-09-05T04:41:28.073Z,67.89
2018-09-05T04:42:28.069Z,68.08
2018-09-05T04:43:28.064Z,67.99
2018-09-05T04:44:28.030Z,68.08
2018-09-05T04:45:28.025Z,67.89
2018-09-05T04:46:28.034Z,68.18
2018-09-05T04:47:28.039Z,67.99
2018-09-05T04:48:27.997Z,67.99
2018-09-05T04:49:27.990Z,67.89
2018-09-05T04:50:27.976Z,67.69
2018-09-05T04:51:27.968Z,68.18
2018-09-05T04:52:27.978Z,67.63
2018-09-05T04:53:27.949Z,67.89
2018-09-05T04:54:27.971Z,67.60
2018-09-05T04:55:27.928Z,68.08
2018-09-05T04:56:27.915Z,67.99
2018-09-05T04:57:27.898Z,67.50
2018-09-05T04:58:27.929Z,67.63
2018-09-05T04:59:27.918Z,67.79
2018-09-05T05:00:27.879Z,67.41
2018-09-05T05:01:27.863Z,67.83
2018-09-05T05:02:27.851Z,68.12
2018-09-05T05:03:27.850Z,67.35
2018-09-05T05:04:27.902Z,67.54
2018-09-05T05:05:27.863Z,67.83
2018-09-05T05:06:27.816Z,67.92
2018-09-05T05:07:27.803Z,67.83
2018-09-05T05:08:27.791Z,67.54
2018-09-05T05:09:27.778Z,67.83
2018-09-05T05:10:27.786Z,67.25
2018-09-05T05:11:27.749Z,67.06
2018-09-05T05:12:27.815Z,67.73
2018-09-05T05:13:27.740Z,67.63
2018-09-05T05:14:27.732Z,67.63
2018-09-05T05:15:27.721Z,67.92
2018-09-05T05:16:27.703Z,67.25
2018-09-05T05:17:27.702Z,67.44
2018-09-05T05:18:27.697Z,67.83
2018-09-05T05:19:27.679Z,67.73
2018-09-05T05:20:27.663Z,67.73
2018-09-05T05:21:27.658Z,67.54
2018-09-05T05:22:27.648Z,67.83
2018-09-05T05:23:27.690Z,67.99
2018-09-05T05:24:27.630Z,67.69
2018-09-05T05:25:27.645Z,67.89
2018-09-05T05:26:27.599Z,67.79
2018-09-05T05:27:27.592Z,67.73
2018-09-05T05:28:27.584Z,68.08
2018-09-05T05:29:27.601Z,68.27
2018-09-05T05:30:27.575Z,68.46
2018-09-05T05:31:27.546Z,68.46
2018-09-05T05:32:27.569Z,68.27
2018-09-05T05:33:27.534Z,68.37
2018-09-05T05:34:27.516Z,68.46
2018-09-05T05:35:27.566Z,68.46
2018-09-05T05:36:27.501Z,68.30
2018-09-05T05:37:27.493Z,68.12
2018-09-05T05:38:27.479Z,68.12
2018-09-05T05:39:27.460Z,68.21
2018-09-05T05:40:27.456Z,68.21
2018-09-05T05:41:27.687Z,68.12
2018-09-05T05:42:27.450Z,68.21
2018-09-05T05:43:27.433Z,67.92
2018-09-05T05:44:27.427Z,68.12
2018-09-05T05:45:27.405Z,68.98
2018-09-05T05:46:27.405Z,69.17
2018-09-05T05:47:27.395Z,68.95
2018-09-05T05:48:27.374Z,69.62
2018-09-05T05:49:27.368Z,69.71
2018-09-05T05:50:27.359Z,69.42
2018-09-05T05:51:27.349Z,69.04
2018-09-05T05:52:27.365Z,68.75
2018-09-05T05:53:27.316Z,69.71
2018-09-05T05:54:27.310Z,69.71
2018-09-05T05:55:27.308Z,69.81
2018-09-05T05:56:27.299Z,69.52
2018-09-05T05:57:27.313Z,69.52
2018-09-05T05:58:27.273Z,69.23
2018-09-05T05:59:27.264Z,69.23
2018-09-05T06:00:27.260Z,69.56
2018-09-05T06:01:27.270Z,70.00
2018-09-05T06:02:27.236Z,70.19
2018-09-05T06:03:27.251Z,69.52
2018-09-05T06:04:27.212Z,69.81
2018-09-05T06:05:27.204Z,70.29
2018-09-05T06:06:27.266Z,70.29
2018-09-05T06:07:27.185Z,70.29
2018-09-05T06:08:27.175Z,70.09
2018-09-05T06:09:27.192Z,70.38
2018-09-05T06:10:27.160Z,70.29
2018-09-05T06:11:27.133Z,69.71
2018-09-05T06:12:27.132Z,69.42
2018-09-05T06:13:27.121Z,69.62
2018-09-05T06:14:27.189Z,69.42
2018-09-05T06:15:27.141Z,69.65
2018-09-05T06:16:27.137Z,69.65
2018-09-05T06:17:27.077Z,70.76
2018-09-05T06:18:27.072Z,70.29
2018-09-05T06:19:27.058Z,70.61
2018-09-05T06:20:27.055Z,70.00
2018-09-05T06:21:27.037Z,69.74
2018-09-05T06:22:27.034Z,69.74
2018-09-05T06:23:27.020Z,69.65
2018-09-05T06:24:27.014Z,70.42
2018-09-05T06:25:27.023Z,70.23
2018-09-05T06:26:27.009Z,70.61
2018-09-05T06:27:26.974Z,70.23
2018-09-05T06:28:26.956Z,70.70
2018-09-05T06:29:26.957Z,71.37
2018-09-05T06:30:27.044Z,71.47
2018-09-05T06:31:27.209Z,70.61
2018-09-05T06:32:26.917Z,70.99
2018-09-05T06:33:26.920Z,70.70
2018-09-05T06:34:26.908Z,70.61
2018-09-05T06:35:26.896Z,70.99
2018-09-05T06:36:26.884Z,70.61
2018-09-05T06:37:26.886Z,71.37
2018-09-05T06:38:26.868Z,71.28
2018-09-05T06:39:26.861Z,71.28
2018-09-05T06:40:26.850Z,71.09
2018-09-05T06:41:26.873Z,72.05
2018-09-05T06:42:26.829Z,71.37
2018-09-05T06:43:26.819Z,71.28
2018-09-05T06:44:26.816Z,71.22
2018-09-05T06:45:26.864Z,72.24
2018-09-05T06:46:26.809Z,71.22
2018-09-05T06:47:26.778Z,71.22
2018-09-05T06:48:26.759Z,71.70
2018-09-05T06:49:26.769Z,71.22
2018-09-05T06:50:26.762Z,71.41
2018-09-05T06:51:26.777Z,71.03
2018-09-05T06:52:26.726Z,70.64
2018-09-05T06:53:26.715Z,70.26
2018-09-05T06:54:26.760Z,70.49
2018-09-05T06:55:26.699Z,69.81
2018-09-05T06:56:26.685Z,69.91
2018-09-05T06:57:26.680Z,69.62
2018-09-05T06:58:26.666Z,69.43
2018-09-05T06:59:26.667Z,69.81
2018-09-05T07:00:26.694Z,69.62
2018-09-05T07:01:26.646Z,69.43
2018-09-05T07:02:27.185Z,70.10
2018-09-05T07:03:26.676Z,69.43
2018-09-05T07:04:26.618Z,69.43
2018-09-05T07:05:26.675Z,69.27
2018-09-05T07:06:26.600Z,68.95
2018-09-05T07:07:26.590Z,68.98
2018-09-05T07:08:26.580Z,69.08
2018-09-05T07:09:26.570Z,69.56
2018-09-05T07:10:26.562Z,69.46
2018-09-05T07:11:26.585Z,69.18
2018-09-05T07:12:26.551Z,69.27
2018-09-05T07:13:26.571Z,69.08
2018-09-05T07:14:26.527Z,69.08
2018-09-05T07:15:26.520Z,68.60
2018-09-05T07:16:26.505Z,68.60
2018-09-05T07:17:26.546Z,69.18
2018-09-05T07:18:26.484Z,69.85
2018-09-05T07:19:26.469Z,69.27
2018-09-05T07:20:26.460Z,69.08
2018-09-05T07:21:26.516Z,69.27
2018-09-05T07:22:26.462Z,69.56
2018-09-05T07:23:26.478Z,69.27
2018-09-05T07:24:26.446Z,69.89
2018-09-05T07:25:26.430Z,69.40
2018-09-05T07:26:26.414Z,69.21
2018-09-05T07:27:26.456Z,68.44
2018-09-05T07:28:26.479Z,68.83
2018-09-05T07:29:26.388Z,68.35
2018-09-05T07:30:26.469Z,68.35
2018-09-05T07:31:26.363Z,68.15
2018-09-05T07:32:26.367Z,68.44
2018-09-05T07:33:26.351Z,68.73
2018-09-05T07:34:26.351Z,68.73
2018-09-05T07:35:26.329Z,68.63
2018-09-05T07:36:26.333Z,68.54
2018-09-05T07:37:26.321Z,68.73
2018-09-05T07:38:26.309Z,67.96
2018-09-05T07:39:26.304Z,68.15
2018-09-05T07:40:26.299Z,67.99
2018-09-05T07:41:26.285Z,68.09
2018-09-05T07:42:26.274Z,68.48
2018-09-05T07:43:26.261Z,68.09
2018-09-05T07:44:26.259Z,68.09
2018-09-05T07:45:26.247Z,67.61
2018-09-05T07:46:26.242Z,67.61
2018-09-05T07:47:26.234Z,67.42
2018-09-05T07:48:26.222Z,66.84
2018-09-05T07:49:26.241Z,66.84
2018-09-05T07:50:26.196Z,67.58
2018-09-05T07:51:26.184Z,67.42
2018-09-05T07:52:26.183Z,67.61
2018-09-05T07:53:26.170Z,67.42
2018-09-05T07:54:26.232Z,67.42
2018-09-05T07:55:26.163Z,67.42
2018-09-05T07:56:26.156Z,67.42
2018-09-05T07:57:26.171Z,67.71
2018-09-05T07:58:26.137Z,67.71
2018-09-05T07:59:26.128Z,67.22
2018-09-05T08:00:26.140Z,67.42
2018-09-05T08:01:26.106Z,67.71
2018-09-05T08:02:26.091Z,67.42
2018-09-05T08:03:26.087Z,67.51
2018-09-05T08:04:26.172Z,66.88
2018-09-05T08:05:26.067Z,67.35
2018-09-05T08:06:26.102Z,67.65
2018-09-05T08:07:26.055Z,67.65
2018-09-05T08:08:26.041Z,67.65
2018-09-05T08:09:26.051Z,66.88
2018-09-05T08:10:26.048Z,67.10
2018-09-05T08:11:26.026Z,67.10
2018-09-05T08:12:26.380Z,66.71
2018-09-05T08:13:26.000Z,66.52
2018-09-05T08:14:26.008Z,66.07
2018-09-05T08:15:26.258Z,65.01
2018-09-05T08:16:25.978Z,64.63
2018-09-05T08:17:25.982Z,65.69
2018-09-05T08:18:25.970Z,65.30
2018-09-05T08:19:25.956Z,65.46
2018-09-05T08:20:25.981Z,65.27
2018-09-05T08:21:25.946Z,65.50
2018-09-05T08:22:25.933Z,65.85
2018-09-05T08:23:25.949Z,65.94
2018-09-05T08:24:25.938Z,65.78
2018-09-05T08:25:25.941Z,65.88
2018-09-05T08:26:25.892Z,65.59
2018-09-05T08:27:25.899Z,65.59
2018-09-05T08:28:25.880Z,65.01
2018-09-05T08:29:25.882Z,64.95
2018-09-05T08:30:25.922Z,64.66
2018-09-05T08:31:25.858Z,64.95
2018-09-05T08:32:25.848Z,64.28
2018-09-05T08:33:25.856Z,64.08
2018-09-05T08:34:25.860Z,64.28
2018-09-05T08:35:25.976Z,64.37
2018-09-05T08:36:25.988Z,64.18
2018-09-05T08:37:25.987Z,64.56
2018-09-05T08:38:25.957Z,64.47
2018-09-05T08:39:25.832Z,64.63
2018-09-05T08:40:25.800Z,64.15
2018-09-05T08:41:26.027Z,65.01
2018-09-05T08:42:25.816Z,64.92
2018-09-05T08:43:25.788Z,64.92
2018-09-05T08:44:25.950Z,64.63
2018-09-05T08:45:26.163Z,64.73
2018-09-05T08:46:25.811Z,64.63
2018-09-05T08:47:25.775Z,64.56
2018-09-05T08:48:25.858Z,64.37
2018-09-05T08:49:25.718Z,64.47
2018-09-05T08:50:25.710Z,64.56
2018-09-05T08:51:25.707Z,64.37
2018-09-05T08:52:25.739Z,64.47
2018-09-05T08:53:25.699Z,64.37
2018-09-05T08:54:25.693Z,64.28
2018-09-05T08:55:25.755Z,64.08
2018-09-05T08:56:25.725Z,64.66
2018-09-05T08:57:25.777Z,63.89
2018-09-05T08:58:25.660Z,63.98
2018-09-05T08:59:25.648Z,63.79
2018-09-05T09:00:25.645Z,64.28
2018-09-05T09:01:25.636Z,64.18
2018-09-05T09:02:25.699Z,64.47
2018-09-05T09:03:25.679Z,63.89
2018-09-05T09:04:25.683Z,63.89
2018-09-05T09:05:25.608Z,64.28
2018-09-05T09:06:25.595Z,64.47
2018-09-05T09:07:25.596Z,64.08
2018-09-05T09:08:25.614Z,64.47
2018-09-05T09:09:25.572Z,64.56
2018-09-05T09:10:25.604Z,64.47
2018-09-05T09:11:25.552Z,64.47
2018-09-05T09:12:25.545Z,63.89
2018-09-05T09:13:25.554Z,63.60
2018-09-05T09:14:25.775Z,63.60
2018-09-05T09:15:25.533Z,63.82
2018-09-05T09:16:25.532Z,63.15
2018-09-05T09:17:25.518Z,63.50
2018-09-05T09:18:25.501Z,63.50
2018-09-05T09:19:25.526Z,63.92
2018-09-05T09:20:25.493Z,63.82
2018-09-05T09:21:25.517Z,63.06
2018-09-05T09:22:25.482Z,63.34
2018-09-05T09:23:25.485Z,63.06
2018-09-05T09:24:25.462Z,63.54
2018-09-05T09:25:25.463Z,63.06
2018-09-05T09:26:25.507Z,63.34
2018-09-05T09:27:25.456Z,62.96
2018-09-05T09:28:25.483Z,62.57
2018-09-05T09:29:25.427Z,62.86
2018-09-05T09:30:25.426Z,62.66
2018-09-05T09:31:25.422Z,62.96
2018-09-05T09:32:25.446Z,62.76
2018-09-05T09:33:25.404Z,62.66
2018-09-05T09:34:25.399Z,62.18
2018-09-05T09:35:25.422Z,63.15
2018-09-05T09:36:25.387Z,63.24
2018-09-05T09:37:25.397Z,62.66
2018-09-05T09:38:25.368Z,62.38
2018-09-05T09:39:25.379Z,62.41
2018-09-05T09:40:25.356Z,62.02
2018-09-05T09:41:25.350Z,62.51
2018-09-05T09:42:25.370Z,60.77
2018-09-05T09:43:25.356Z,59.13
2018-09-05T09:44:25.325Z,59.23
2018-09-05T09:45:25.320Z,59.90
2018-09-05T09:46:25.357Z,60.28
2018-09-05T09:47:25.340Z,60.10
2018-09-05T09:48:25.295Z,60.28
2018-09-05T09:49:25.301Z,60.38
2018-09-05T09:50:25.287Z,60.38
2018-09-05T09:51:25.280Z,61.06
2018-09-05T09:52:25.293Z,60.77
2018-09-05T09:53:25.297Z,60.86
2018-09-05T09:54:25.253Z,60.96
2018-09-05T09:55:25.256Z,60.58
2018-09-05T09:56:25.239Z,60.96
2018-09-05T09:57:25.236Z,60.86
2018-09-05T09:58:25.229Z,60.96
2018-09-05T09:59:25.285Z,60.86
2018-09-05T10:00:25.214Z,59.13
2018-09-05T10:01:25.201Z,59.06
2018-09-05T10:02:25.205Z,59.06
2018-09-05T10:03:25.276Z,59.35
2018-09-05T10:04:25.182Z,59.25
2018-09-05T10:05:25.212Z,58.87
2018-09-05T10:06:25.169Z,59.64
2018-09-05T10:07:25.164Z,59.06
2018-09-05T10:08:25.155Z,59.06
2018-09-05T10:09:25.156Z,59.06
2018-09-05T10:10:25.245Z,58.87
2018-09-05T10:11:25.137Z,59.16
2018-09-05T10:12:25.134Z,58.97
2018-09-05T10:13:25.128Z,59.06
2018-09-05T10:14:25.125Z,58.97
2018-09-05T10:15:25.117Z,59.25
2018-09-05T10:16:25.106Z,59.25
2018-09-05T10:17:25.101Z,59.09
2018-09-05T10:18:25.097Z,59.00
2018-09-05T10:19:25.091Z,60.16
2018-09-05T10:20:25.069Z,60.06
2018-09-05T10:21:25.077Z,60.25
2018-09-05T10:22:25.078Z,59.67
2018-09-05T10:23:25.057Z,59.96
2018-09-05T10:24:25.050Z,59.28
2018-09-05T10:25:25.072Z,57.84
2018-09-05T10:26:25.039Z,57.74
2018-09-05T10:27:25.024Z,56.68
2018-09-05T10:28:25.041Z,56.20
2018-09-05T10:29:25.020Z,56.26
2018-09-05T10:30:25.059Z,57.06
2018-09-05T10:31:25.007Z,57.35
2018-09-05T10:32:24.998Z,57.64
2018-09-05T10:33:24.997Z,57.93
2018-09-05T10:34:24.985Z,57.54
2018-09-05T10:35:24.971Z,57.74
2018-09-05T10:36:24.979Z,57.45
2018-09-05T10:37:24.957Z,57.74
2018-09-05T10:38:24.958Z,57.84
2018-09-05T10:39:24.942Z,57.93
2018-09-05T10:40:24.975Z,58.03
2018-09-05T10:41:25.023Z,58.22
2018-09-05T10:42:24.925Z,57.93
2018-09-05T10:43:24.930Z,57.06
2018-09-05T10:44:25.039Z,56.68
2018-09-05T10:45:24.918Z,56.77
2018-09-05T10:46:24.905Z,56.71
2018-09-05T10:47:24.955Z,56.96
2018-09-05T10:48:24.899Z,56.48
2018-09-05T10:49:24.888Z,56.87
2018-09-05T10:50:24.887Z,57.26
2018-09-05T10:51:24.870Z,57.26
2018-09-05T10:52:24.869Z,57.77
2018-09-05T10:53:24.873Z,57.93
2018-09-05T10:54:24.858Z,57.96
2018-09-05T10:55:24.854Z,57.29
2018-09-05T10:56:24.848Z,56.32
2018-09-05T10:57:24.839Z,55.93
2018-09-05T10:58:24.869Z,56.13
2018-09-05T10:59:24.879Z,55.65
2018-09-05T11:00:24.813Z,55.35
2018-09-05T11:01:24.814Z,55.67
2018-09-05T11:02:24.798Z,55.38
2018-09-05T11:03:24.798Z,55.41
2018-09-05T11:04:24.801Z,55.51
2018-09-05T11:05:24.825Z,54.05
2018-09-05T11:06:24.794Z,54.35
2018-09-05T11:07:24.783Z,53.77
2018-09-05T11:08:24.775Z,53.67
2018-09-05T11:09:24.801Z,53.28
2018-09-05T11:10:24.786Z,54.25
2018-09-05T11:11:24.758Z,53.77
2018-09-05T11:12:24.789Z,54.35
2018-09-05T11:13:24.751Z,54.63
2018-09-05T11:14:24.743Z,54.53
2018-09-05T11:15:24.775Z,54.71
2018-09-05T11:16:24.727Z,54.22
2018-09-05T11:17:24.733Z,54.71
2018-09-05T11:18:24.718Z,54.80
2018-09-05T11:19:24.783Z,54.71
2018-09-05T11:20:24.715Z,54.51
2018-09-05T11:21:24.731Z,54.22
2018-09-05T11:22:24.704Z,53.83
2018-09-05T11:23:24.692Z,54.51
2018-09-05T11:24:24.685Z,54.61
2018-09-05T11:25:24.703Z,54.71
2018-09-05T11:26:24.701Z,54.61
2018-09-05T11:27:24.666Z,54.99
2018-09-05T11:28:24.666Z,54.51
2018-09-05T11:29:24.664Z,54.41
2018-09-05T11:30:24.658Z,54.99
2018-09-05T11:31:24.679Z,54.32
2018-09-05T11:32:24.641Z,54.13
2018-09-05T11:33:24.635Z,53.64
2018-09-05T11:34:24.628Z,52.97
2018-09-05T11:35:24.620Z,53.45
2018-09-05T11:36:24.654Z,53.74
2018-09-05T11:37:24.606Z,54.22
2018-09-05T11:38:24.602Z,54.03
2018-09-05T11:39:24.666Z,54.13
2018-09-05T11:40:24.595Z,54.32
2018-09-05T11:41:24.578Z,54.61
2018-09-05T11:42:24.589Z,54.71
2018-09-05T11:43:24.581Z,55.09
2018-09-05T11:44:24.576Z,55.29
2018-09-05T11:45:24.562Z,55.38
2018-09-05T11:46:24.594Z,55.38
2018-09-05T11:47:24.552Z,56.05
2018-09-05T11:48:24.543Z,55.19
2018-09-05T11:49:24.545Z,55.57
2018-09-05T11:50:24.545Z,55.02
2018-09-05T11:51:24.562Z,54.90
2018-09-05T11:52:24.528Z,54.83
2018-09-05T11:53:24.514Z,55.19
2018-09-05T11:54:24.511Z,55.21
2018-09-05T11:55:24.514Z,55.99
2018-09-05T11:56:24.505Z,55.96
2018-09-05T11:57:24.563Z,55.51
2018-09-05T11:58:24.492Z,55.21
2018-09-05T11:59:24.488Z,55.21
2018-09-05T12:00:24.481Z,54.63
2018-09-05T12:01:24.481Z,53.19
2018-09-05T12:02:24.555Z,52.89
2018-09-05T12:03:24.461Z,53.19
2018-09-05T12:04:24.460Z,53.96
2018-09-05T12:05:24.475Z,54.05
2018-09-05T12:06:24.477Z,54.35
2018-09-05T12:07:24.436Z,54.35
2018-09-05T12:08:24.433Z,54.53
2018-09-05T12:09:24.428Z,53.86
2018-09-05T12:10:24.425Z,54.05
2018-09-05T12:11:24.446Z,54.83
2018-09-05T12:12:24.409Z,53.41
2018-09-05T12:13:24.446Z,53.79
2018-09-05T12:14:24.404Z,53.21
2018-09-05T12:15:24.404Z,53.79
2018-09-05T12:16:24.394Z,53.91
2018-09-05T12:17:24.384Z,53.91
2018-09-05T12:18:24.424Z,54.30
2018-09-05T12:19:24.395Z,54.23
2018-09-05T12:20:24.374Z,54.13
2018-09-05T12:21:24.410Z,54.43
2018-09-05T12:22:24.377Z,51.93
2018-09-05T12:23:24.409Z,52.83
2018-09-05T12:24:24.379Z,50.79
2018-09-05T12:25:24.369Z,50.60
2018-09-05T12:26:24.435Z,50.34
2018-09-05T12:27:24.363Z,50.14
2018-09-05T12:28:24.364Z,50.34
2018-09-05T12:29:24.364Z,50.34
2018-09-05T12:30:24.373Z,49.27
2018-09-05T12:31:24.358Z,49.07
2018-09-05T12:32:24.349Z,49.44
2018-09-05T12:33:24.344Z,49.24
2018-09-05T12:34:24.393Z,50.02
2018-09-05T12:35:24.353Z,49.54
2018-09-05T12:36:24.352Z,48.66
2018-09-05T12:37:24.354Z,49.44
2018-09-05T12:38:24.392Z,49.15
2018-09-05T12:39:24.335Z,49.54
2018-09-05T12:40:24.344Z,49.02
2018-09-05T12:41:24.341Z,49.70
2018-09-05T12:42:24.336Z,48.71
2018-09-05T12:43:24.332Z,48.52
2018-09-05T12:44:24.393Z,49.68
2018-09-05T12:45:24.313Z,49.68
2018-09-05T12:46:24.319Z,50.16
2018-09-05T12:47:24.326Z,50.26
2018-09-05T12:48:24.315Z,49.87
2018-09-05T12:49:24.316Z,49.77
2018-09-05T12:50:24.323Z,49.97
2018-09-05T12:51:24.334Z,50.84
2018-09-05T12:52:24.302Z,50.16